createdAt,value
2023-05-09T00:00:29.901Z,16.13
2023-05-09T00:02:56.616Z,16.12
2023-05-09T00:05:23.351Z,16.12
2023-05-09T00:07:49.957Z,16.09
2023-05-09T00:10:16.660Z,16.08
2023-05-09T00:12:43.803Z,16.05
2023-05-09T00:15:10.872Z,16.03
2023-05-09T00:17:38.715Z,16.02
2023-05-09T00:20:12.386Z,15.99
2023-05-09T00:22:41.047Z,15.97
2023-05-09T00:25:08.969Z,15.93
2023-05-09T00:27:35.843Z,15.90
2023-05-09T00:30:04.187Z,15.87
2023-05-09T00:32:30.940Z,15.84
2023-05-09T00:34:58.288Z,15.80
2023-05-09T00:37:24.842Z,15.76
2023-05-09T00:39:51.335Z,15.75
2023-05-09T00:42:17.906Z,15.73
2023-05-09T00:44:44.490Z,15.69
2023-05-09T00:47:11.097Z,15.66
2023-05-09T00:49:38.250Z,15.63
2023-05-09T00:52:05.546Z,15.59
2023-05-09T00:54:32.329Z,15.54
2023-05-09T00:56:58.885Z,15.51
2023-05-09T00:59:25.469Z,15.50
2023-05-09T01:01:52.124Z,15.48
2023-05-09T01:04:18.852Z,15.47
2023-05-09T01:06:51.406Z,15.45
2023-05-09T01:09:26.625Z,15.43
2023-05-09T01:12:07.284Z,15.41
2023-05-09T01:14:38.808Z,15.41
2023-05-09T01:17:25.787Z,15.43
2023-05-09T01:20:00.231Z,15.45
2023-05-09T01:22:34.950Z,15.46
2023-05-09T01:25:39.004Z,15.45
2023-05-09T01:28:55.674Z,15.44
2023-05-09T01:31:23.163Z,15.49
2023-05-09T01:33:56.710Z,15.50
2023-05-09T01:36:26.103Z,15.50
2023-05-09T01:38:52.791Z,15.51
2023-05-09T01:41:22.520Z,15.53
2023-05-09T01:43:51.188Z,15.51
2023-05-09T01:46:19.473Z,15.52
2023-05-09T01:48:46.761Z,15.53
2023-05-09T01:51:15.079Z,15.59
2023-05-09T01:53:43.401Z,15.64
2023-05-09T01:56:11.484Z,15.65
2023-05-09T01:58:39.364Z,15.69
2023-05-09T02:01:06.279Z,15.70
2023-05-09T02:03:34.325Z,15.70
2023-05-09T02:06:03.887Z,15.70
2023-05-09T02:08:31.485Z,15.69
2023-05-09T02:10:58.147Z,15.67
2023-05-09T02:13:25.047Z,15.66
2023-05-09T02:15:52.354Z,15.66
2023-05-09T02:18:18.860Z,15.62
2023-05-09T02:20:45.865Z,15.60
2023-05-09T02:23:12.593Z,15.56
2023-05-09T02:25:40.732Z,15.53
2023-05-09T02:28:10.018Z,15.50
2023-05-09T02:30:41.992Z,15.50
2023-05-09T02:33:10.112Z,15.41
2023-05-09T02:35:37.399Z,15.44
2023-05-09T02:38:05.483Z,15.44
2023-05-09T02:40:33.620Z,15.42
2023-05-09T02:43:00.122Z,15.40
2023-05-09T02:45:26.816Z,15.38
2023-05-09T02:47:53.410Z,15.38
2023-05-09T02:50:20.115Z,15.36
2023-05-09T02:52:46.670Z,15.35
2023-05-09T02:55:13.446Z,15.34
2023-05-09T02:57:40.284Z,15.33
2023-05-09T03:00:10.498Z,15.28
2023-05-09T03:02:38.627Z,15.27
2023-05-09T03:05:05.875Z,15.27
2023-05-09T03:07:32.401Z,15.25
2023-05-09T03:09:58.968Z,15.21
2023-05-09T03:12:25.507Z,15.18
2023-05-09T03:14:52.018Z,15.18
2023-05-09T03:17:21.363Z,15.15
2023-05-09T03:19:48.634Z,15.14
2023-05-09T03:22:15.683Z,15.11
2023-05-09T03:24:42.319Z,15.10
2023-05-09T03:27:08.885Z,15.08
2023-05-09T03:29:35.469Z,15.06
2023-05-09T03:32:02.017Z,15.05
2023-05-09T03:34:28.526Z,15.04
2023-05-09T03:36:55.087Z,15.02
2023-05-09T03:39:21.668Z,15.02
2023-05-09T03:41:48.877Z,15.02
2023-05-09T03:44:15.960Z,15.02
2023-05-09T03:46:42.565Z,15.04
2023-05-09T03:49:09.195Z,15.05
2023-05-09T03:51:35.838Z,15.05
2023-05-09T03:54:02.367Z,15.06
2023-05-09T03:56:28.953Z,15.08
2023-05-09T03:58:55.499Z,15.10
2023-05-09T04:01:22.147Z,15.09
2023-05-09T04:03:48.826Z,15.09
2023-05-09T04:06:15.588Z,15.09
2023-05-09T04:08:42.517Z,15.09
2023-05-09T04:11:09.099Z,15.09
2023-05-09T04:13:35.640Z,15.08
2023-05-09T04:16:02.587Z,15.09
2023-05-09T04:18:29.115Z,15.09
2023-05-09T04:20:55.653Z,15.10
2023-05-09T04:23:22.188Z,15.10
2023-05-09T04:25:51.324Z,15.11
2023-05-09T04:28:18.028Z,15.14
2023-05-09T04:30:44.585Z,15.15
2023-05-09T04:33:11.247Z,15.16
2023-05-09T04:35:38.483Z,15.16
2023-05-09T04:38:05.030Z,15.16
2023-05-09T04:40:31.665Z,15.17
2023-05-09T04:42:59.038Z,15.17
2023-05-09T04:45:26.095Z,15.18
2023-05-09T04:47:52.675Z,15.22
2023-05-09T04:50:19.328Z,15.25
2023-05-09T04:52:46.118Z,15.48
2023-05-09T04:55:12.826Z,15.85
2023-05-09T04:57:39.950Z,16.16
2023-05-09T05:00:07.950Z,16.43
2023-05-09T05:02:34.578Z,16.65
2023-05-09T05:05:17.980Z,16.80
2023-05-09T05:07:47.640Z,16.99
2023-05-09T05:10:14.217Z,17.25
2023-05-09T05:12:40.921Z,17.41
2023-05-09T05:15:07.955Z,17.57
2023-05-09T05:17:34.602Z,17.66
2023-05-09T05:20:01.341Z,17.72
2023-05-09T05:22:27.865Z,17.87
2023-05-09T05:24:54.531Z,17.93
2023-05-09T05:27:21.181Z,17.96
2023-05-09T05:29:47.675Z,17.95
2023-05-09T05:32:14.176Z,17.92
2023-05-09T05:34:40.918Z,17.93
2023-05-09T05:37:07.673Z,17.86
2023-05-09T05:39:34.185Z,17.89
2023-05-09T05:42:00.757Z,17.88
2023-05-09T05:44:27.286Z,17.80
2023-05-09T05:46:53.855Z,17.76
2023-05-09T05:49:20.450Z,17.78
2023-05-09T05:51:47.047Z,17.82
2023-05-09T05:54:13.571Z,17.85
2023-05-09T05:56:40.149Z,17.87
2023-05-09T05:59:06.675Z,17.95
2023-05-09T06:01:33.247Z,18.00
2023-05-09T06:03:59.956Z,17.98
2023-05-09T06:06:27.347Z,18.08
2023-05-09T06:08:54.011Z,18.12
2023-05-09T06:11:21.225Z,18.21
2023-05-09T06:13:47.752Z,18.34
2023-05-09T06:16:19.688Z,18.48
2023-05-09T06:18:47.324Z,18.69
2023-05-09T06:21:13.835Z,18.81
2023-05-09T06:23:47.262Z,18.92
2023-05-09T06:26:24.040Z,18.95
2023-05-09T06:28:50.657Z,19.04
2023-05-09T06:31:17.338Z,19.10
2023-05-09T06:33:43.997Z,19.07
2023-05-09T06:36:10.695Z,19.15
2023-05-09T06:38:37.242Z,19.21
2023-05-09T06:41:03.832Z,19.34
2023-05-09T06:43:30.546Z,19.45
2023-05-09T06:45:57.196Z,19.55
2023-05-09T06:48:26.889Z,19.64
2023-05-09T06:50:53.694Z,19.72
2023-05-09T06:53:20.240Z,19.74
2023-05-09T06:55:47.749Z,19.82
2023-05-09T06:58:14.831Z,19.90
2023-05-09T07:00:41.378Z,19.99
2023-05-09T07:03:08.001Z,20.09
2023-05-09T07:05:34.813Z,20.20
2023-05-09T07:08:01.456Z,20.22
2023-05-09T07:10:28.158Z,20.17
2023-05-09T07:12:54.828Z,20.10
2023-05-09T07:15:36.866Z,20.11
2023-05-09T07:18:07.033Z,20.18
2023-05-09T07:20:33.762Z,20.21
2023-05-09T07:23:00.448Z,20.28
2023-05-09T07:25:27.106Z,20.28
2023-05-09T07:27:53.615Z,20.34
2023-05-09T07:30:20.196Z,20.38
2023-05-09T07:32:47.054Z,20.42
2023-05-09T07:35:13.898Z,20.43
2023-05-09T07:37:40.932Z,20.44
2023-05-09T07:40:08.158Z,20.41
2023-05-09T07:42:34.709Z,20.35
2023-05-09T07:45:01.400Z,20.37
2023-05-09T07:47:28.012Z,20.32
2023-05-09T07:49:54.570Z,20.22
2023-05-09T07:52:21.197Z,20.20
2023-05-09T07:54:47.776Z,20.01
2023-05-09T07:57:14.850Z,19.83
2023-05-09T07:59:42.409Z,19.83
2023-05-09T08:02:09.117Z,19.97
2023-05-09T08:04:38.287Z,20.03
2023-05-09T08:07:05.188Z,20.05
2023-05-09T08:09:31.878Z,20.01
2023-05-09T08:11:58.530Z,19.99
2023-05-09T08:14:25.352Z,19.97
2023-05-09T08:16:51.921Z,19.91
2023-05-09T08:19:18.450Z,19.92
2023-05-09T08:21:45.009Z,20.04
2023-05-09T08:24:11.521Z,20.22
2023-05-09T08:26:38.109Z,20.26
2023-05-09T08:29:04.666Z,20.21
2023-05-09T08:31:31.262Z,20.17
2023-05-09T08:33:57.811Z,20.18
2023-05-09T08:36:24.385Z,20.31
2023-05-09T08:38:50.946Z,20.40
2023-05-09T08:41:18.062Z,20.43
2023-05-09T08:43:45.624Z,20.34
2023-05-09T08:46:14.397Z,20.28
2023-05-09T08:48:43.166Z,20.29
2023-05-09T08:51:11.978Z,20.21
2023-05-09T08:53:39.014Z,20.24
2023-05-09T08:56:06.141Z,20.33
2023-05-09T08:58:34.258Z,20.31
2023-05-09T09:01:04.678Z,20.27
2023-05-09T09:03:32.087Z,20.23
2023-05-09T09:05:58.982Z,20.17
2023-05-09T09:08:27.547Z,20.13
2023-05-09T09:10:54.340Z,20.11
2023-05-09T09:13:21.978Z,20.11
2023-05-09T09:15:49.596Z,20.15
2023-05-09T09:18:23.561Z,20.10
2023-05-09T09:20:53.146Z,19.94
2023-05-09T09:23:24.435Z,19.91
2023-05-09T09:25:59.728Z,19.72
2023-05-09T09:28:27.089Z,19.68
2023-05-09T09:30:53.926Z,19.65
2023-05-09T09:33:22.090Z,19.57
2023-05-09T09:35:53.661Z,19.44
2023-05-09T09:38:24.718Z,19.49
2023-05-09T09:40:56.152Z,19.58
2023-05-09T09:43:29.848Z,19.36
2023-05-09T09:45:57.839Z,19.11
2023-05-09T09:48:26.042Z,19.22
2023-05-09T09:50:55.489Z,19.29
2023-05-09T09:53:22.101Z,19.30
2023-05-09T09:55:52.233Z,19.29
2023-05-09T09:58:21.971Z,19.45
2023-05-09T10:01:06.327Z,19.61
2023-05-09T10:03:46.445Z,19.83
2023-05-09T10:06:16.048Z,19.91
2023-05-09T10:08:49.173Z,19.90
2023-05-09T10:11:16.542Z,19.95
2023-05-09T10:13:44.475Z,20.06
2023-05-09T10:16:11.656Z,20.12
2023-05-09T10:18:41.198Z,20.04
2023-05-09T10:21:11.832Z,19.96
2023-05-09T10:23:42.821Z,19.79
2023-05-09T10:26:23.024Z,19.82
2023-05-09T10:28:54.864Z,19.95
2023-05-09T10:31:24.375Z,19.90
2023-05-09T10:33:51.332Z,19.91
2023-05-09T10:36:22.174Z,19.97
2023-05-09T10:38:49.857Z,20.06
2023-05-09T10:41:18.774Z,20.04
2023-05-09T10:43:46.043Z,20.12
2023-05-09T10:46:13.611Z,20.31
2023-05-09T10:48:41.865Z,20.55
2023-05-09T10:51:09.548Z,20.61
2023-05-09T10:53:50.304Z,20.47
2023-05-09T10:56:26.522Z,20.43
2023-05-09T10:58:54.661Z,20.60
2023-05-09T11:01:39.747Z,20.73
2023-05-09T11:04:11.658Z,20.83
2023-05-09T11:06:45.200Z,20.82
2023-05-09T11:09:35.496Z,20.92
2023-05-09T11:12:04.930Z,20.97
2023-05-09T11:14:41.437Z,20.99
2023-05-09T11:17:23.089Z,21.02
2023-05-09T11:19:49.854Z,21.12
2023-05-09T11:22:17.446Z,21.17
2023-05-09T11:24:51.216Z,21.23
2023-05-09T11:27:23.051Z,21.28
2023-05-09T11:29:54.148Z,21.24
2023-05-09T11:32:22.794Z,21.34
2023-05-09T11:34:49.832Z,21.39
2023-05-09T11:37:20.865Z,21.42
2023-05-09T11:39:58.733Z,21.48
2023-05-09T11:42:28.692Z,21.48
2023-05-09T11:44:56.847Z,21.39
2023-05-09T11:47:23.882Z,21.28
2023-05-09T11:49:50.721Z,21.14
2023-05-09T11:52:19.259Z,21.05
2023-05-09T11:54:45.768Z,20.98
2023-05-09T11:57:17.276Z,20.89
2023-05-09T11:59:45.487Z,20.84
2023-05-09T12:02:12.935Z,20.83
2023-05-09T12:04:39.659Z,20.80
2023-05-09T12:07:06.362Z,20.78
2023-05-09T12:09:34.772Z,20.75
2023-05-09T12:12:01.500Z,20.66
2023-05-09T12:14:33.280Z,20.53
2023-05-09T12:17:00.188Z,20.55
2023-05-09T12:19:27.238Z,20.63
2023-05-09T12:22:01.934Z,20.57
2023-05-09T12:24:30.022Z,20.52
2023-05-09T12:26:58.527Z,20.44
2023-05-09T12:29:26.081Z,20.49
2023-05-09T12:31:53.950Z,20.48
2023-05-09T12:34:21.241Z,20.45
2023-05-09T12:36:51.749Z,20.51
2023-05-09T12:39:19.492Z,20.53
2023-05-09T12:41:53.874Z,20.40
2023-05-09T12:44:29.642Z,20.30
2023-05-09T12:47:01.723Z,20.29
2023-05-09T12:49:29.643Z,20.17
2023-05-09T12:52:02.995Z,20.12
2023-05-09T12:54:31.200Z,20.11
2023-05-09T12:57:02.080Z,20.01
2023-05-09T12:59:30.288Z,19.87
2023-05-09T13:01:59.381Z,19.73
2023-05-09T13:04:28.104Z,19.55
2023-05-09T13:06:57.706Z,19.47
2023-05-09T13:09:27.916Z,19.39
2023-05-09T13:11:54.563Z,19.32
2023-05-09T13:14:23.314Z,19.25
2023-05-09T13:16:50.006Z,19.19
2023-05-09T13:19:16.660Z,19.10
2023-05-09T13:21:43.373Z,18.93
2023-05-09T13:24:09.975Z,18.84
2023-05-09T13:26:36.613Z,18.72
2023-05-09T13:29:03.272Z,18.65
2023-05-09T13:31:30.592Z,18.59
2023-05-09T13:33:57.297Z,18.54
2023-05-09T13:36:23.920Z,18.44
2023-05-09T13:38:50.465Z,18.31
2023-05-09T13:41:20.934Z,18.26
2023-05-09T13:43:47.935Z,18.21
2023-05-09T13:46:14.565Z,18.17
2023-05-09T13:48:41.895Z,18.15
2023-05-09T13:51:08.776Z,18.14
2023-05-09T13:53:38.123Z,18.04
2023-05-09T13:56:12.070Z,17.96
2023-05-09T13:58:38.620Z,17.84
2023-05-09T14:01:05.429Z,17.77
2023-05-09T14:03:32.198Z,17.76
2023-05-09T14:05:58.907Z,17.73
2023-05-09T14:08:25.555Z,17.72
2023-05-09T14:10:52.043Z,17.68
2023-05-09T14:13:18.677Z,17.64
2023-05-09T14:15:45.346Z,17.39
2023-05-09T14:18:15.504Z,17.13
2023-05-09T14:20:44.422Z,16.86
2023-05-09T14:23:11.002Z,16.63
2023-05-09T14:25:37.985Z,16.43
2023-05-09T14:28:06.904Z,16.27
2023-05-09T14:30:34.258Z,16.06
2023-05-09T14:33:00.968Z,15.85
2023-05-09T14:35:27.666Z,15.67
2023-05-09T14:37:54.332Z,15.56
2023-05-09T14:40:21.116Z,15.50
2023-05-09T14:42:48.455Z,15.42
2023-05-09T14:45:15.489Z,15.38
2023-05-09T14:47:42.076Z,15.39
2023-05-09T14:50:11.425Z,15.33
2023-05-09T14:52:38.001Z,15.31
2023-05-09T14:55:06.223Z,15.27
2023-05-09T14:57:33.372Z,15.30
2023-05-09T15:00:12.508Z,15.30
2023-05-09T15:02:43.707Z,15.33
2023-05-09T15:05:11.731Z,15.36
2023-05-09T15:07:38.750Z,15.31
2023-05-09T15:10:05.972Z,15.29
2023-05-09T15:12:32.694Z,15.24
2023-05-09T15:15:13.016Z,15.16
2023-05-09T15:17:39.581Z,15.18
2023-05-09T15:20:07.250Z,15.21
2023-05-09T15:22:34.633Z,15.20
2023-05-09T15:25:02.004Z,15.20
2023-05-09T15:27:29.546Z,15.20
2023-05-09T15:29:56.286Z,15.17
2023-05-09T15:32:22.962Z,15.16
2023-05-09T15:34:49.685Z,15.18
2023-05-09T15:37:16.286Z,15.17
2023-05-09T15:39:43.691Z,15.21
2023-05-09T15:42:12.273Z,15.23
2023-05-09T15:44:42.819Z,15.23
2023-05-09T15:47:09.971Z,15.25
2023-05-09T15:49:36.561Z,15.23
2023-05-09T15:52:04.522Z,15.20
2023-05-09T15:54:31.838Z,15.18
2023-05-09T15:56:59.409Z,15.18
2023-05-09T15:59:26.529Z,15.20
2023-05-09T16:01:53.850Z,15.22
2023-05-09T16:04:20.762Z,15.21
2023-05-09T16:06:48.067Z,15.20
2023-05-09T16:09:15.416Z,15.18
2023-05-09T16:11:42.411Z,15.17
2023-05-09T16:14:12.951Z,15.17
2023-05-09T16:16:40.643Z,15.13
2023-05-09T16:19:07.282Z,15.12
2023-05-09T16:21:33.910Z,15.08
2023-05-09T16:24:02.933Z,15.11
2023-05-09T16:26:29.542Z,15.12
2023-05-09T16:28:56.404Z,15.13
2023-05-09T16:31:26.579Z,15.04
2023-05-09T16:33:54.397Z,14.98
2023-05-09T16:36:22.212Z,14.91
2023-05-09T16:38:48.798Z,14.90
2023-05-09T16:41:16.038Z,14.91
2023-05-09T16:43:42.786Z,14.92
2023-05-09T16:46:09.581Z,14.91
2023-05-09T16:48:36.200Z,14.91
2023-05-09T16:51:03.314Z,14.91
2023-05-09T16:53:29.945Z,14.84
2023-05-09T16:55:56.930Z,14.84
2023-05-09T16:58:23.767Z,14.82
2023-05-09T17:00:50.988Z,14.85
2023-05-09T17:03:17.628Z,14.83
2023-05-09T17:05:44.264Z,14.84
2023-05-09T17:08:11.441Z,14.84
2023-05-09T17:10:39.485Z,14.89
2023-05-09T17:13:08.823Z,14.97
2023-05-09T17:15:35.687Z,14.97
2023-05-09T17:18:03.097Z,15.00
2023-05-09T17:20:30.001Z,15.03
2023-05-09T17:22:57.358Z,15.03
2023-05-09T17:25:24.100Z,15.01
2023-05-09T17:27:50.711Z,15.01
2023-05-09T17:30:18.723Z,14.99
2023-05-09T17:32:47.035Z,14.95
2023-05-09T17:35:13.961Z,14.93
2023-05-09T17:37:40.954Z,14.95
2023-05-09T17:40:08.136Z,14.94
2023-05-09T17:42:34.800Z,14.96
2023-05-09T17:45:01.316Z,14.97
2023-05-09T17:47:28.853Z,14.94
2023-05-09T17:49:55.472Z,14.92
2023-05-09T17:52:22.141Z,14.93
2023-05-09T17:54:48.817Z,14.91
2023-05-09T17:57:15.325Z,14.88
2023-05-09T17:59:42.034Z,14.86
2023-05-09T18:02:08.738Z,14.83
2023-05-09T18:04:35.564Z,14.83
2023-05-09T18:07:02.677Z,14.85
2023-05-09T18:09:29.443Z,14.86
2023-05-09T18:11:56.069Z,14.82
2023-05-09T18:14:22.677Z,14.84
2023-05-09T18:16:49.252Z,14.81
2023-05-09T18:19:15.783Z,14.82
2023-05-09T18:21:42.448Z,14.77
2023-05-09T18:24:09.306Z,14.78
2023-05-09T18:26:36.068Z,14.82
2023-05-09T18:29:02.736Z,14.78
2023-05-09T18:31:31.318Z,14.75
2023-05-09T18:33:57.938Z,14.73
2023-05-09T18:36:24.514Z,14.72
2023-05-09T18:38:51.083Z,14.68
2023-05-09T18:41:17.673Z,14.65
2023-05-09T18:43:47.086Z,14.66
2023-05-09T18:46:17.527Z,14.65
2023-05-09T18:48:45.430Z,14.62
2023-05-09T18:51:12.229Z,14.57
2023-05-09T18:53:38.885Z,14.54
2023-05-09T18:56:05.465Z,14.52
2023-05-09T18:58:32.444Z,14.50
2023-05-09T19:00:59.176Z,14.52
2023-05-09T19:03:27.166Z,14.50
2023-05-09T19:05:54.176Z,14.49
2023-05-09T19:08:20.887Z,14.48
2023-05-09T19:10:47.615Z,14.50
2023-05-09T19:13:16.308Z,14.50
2023-05-09T19:15:43.275Z,14.50
2023-05-09T19:18:09.988Z,14.51
2023-05-09T19:20:46.050Z,14.46
2023-05-09T19:23:12.560Z,14.45
2023-05-09T19:25:39.098Z,14.46
2023-05-09T19:28:06.350Z,14.45
2023-05-09T19:30:33.444Z,14.47
2023-05-09T19:33:00.114Z,14.47
2023-05-09T19:35:26.836Z,14.44
2023-05-09T19:37:53.373Z,14.44
2023-05-09T19:40:20.052Z,14.44
2023-05-09T19:42:46.573Z,14.46
2023-05-09T19:45:13.167Z,14.43
2023-05-09T19:47:39.798Z,14.40
2023-05-09T19:50:07.043Z,14.41
2023-05-09T19:52:36.294Z,14.42
2023-05-09T19:55:03.821Z,14.41
2023-05-09T19:57:30.311Z,14.40
2023-05-09T19:59:57.832Z,14.36
2023-05-09T20:02:24.582Z,14.33
2023-05-09T20:04:51.248Z,14.34
2023-05-09T20:07:18.229Z,14.34
2023-05-09T20:09:44.790Z,14.33
2023-05-09T20:12:11.538Z,14.36
2023-05-09T20:14:38.152Z,14.35
2023-05-09T20:17:05.412Z,14.34
2023-05-09T20:19:33.171Z,14.32
2023-05-09T20:22:01.120Z,14.32
2023-05-09T20:24:27.931Z,14.33
2023-05-09T20:26:57.258Z,14.33
2023-05-09T20:29:25.173Z,14.32
2023-05-09T20:31:51.849Z,14.32
2023-05-09T20:34:20.888Z,14.35
2023-05-09T20:36:51.376Z,14.37
2023-05-09T20:39:18.692Z,14.34
2023-05-09T20:41:46.090Z,14.31
2023-05-09T20:44:14.140Z,14.35
2023-05-09T20:46:40.845Z,14.33
2023-05-09T20:49:07.767Z,14.32
2023-05-09T20:51:34.322Z,14.36
2023-05-09T20:54:00.942Z,14.34
2023-05-09T20:56:28.704Z,14.35
2023-05-09T20:58:56.152Z,14.35
2023-05-09T21:01:22.825Z,14.37
2023-05-09T21:03:49.371Z,14.38
2023-05-09T21:06:15.817Z,14.40
2023-05-09T21:08:42.376Z,14.42
2023-05-09T21:11:09.210Z,14.43
2023-05-09T21:13:37.166Z,14.42
2023-05-09T21:16:03.786Z,14.42
2023-05-09T21:18:30.350Z,14.44
2023-05-09T21:20:56.961Z,14.45
2023-05-09T21:23:23.430Z,14.44
2023-05-09T21:25:49.930Z,14.43
2023-05-09T21:28:17.322Z,14.44
2023-05-09T21:30:43.847Z,14.42
2023-05-09T21:33:10.714Z,14.40
2023-05-09T21:35:37.251Z,14.38
2023-05-09T21:38:03.692Z,14.35
2023-05-09T21:40:30.289Z,14.32
2023-05-09T21:42:56.767Z,14.31
2023-05-09T21:45:23.365Z,14.34
2023-05-09T21:47:49.969Z,14.34
2023-05-09T21:50:16.799Z,14.33
2023-05-09T21:52:43.738Z,14.36
2023-05-09T21:55:10.490Z,14.35
2023-05-09T21:57:36.941Z,14.36
2023-05-09T22:00:05.493Z,14.38
2023-05-09T22:02:32.500Z,14.39
2023-05-09T22:04:59.071Z,14.40
2023-05-09T22:07:25.646Z,14.38
2023-05-09T22:09:52.902Z,14.35
2023-05-09T22:12:19.730Z,14.32
2023-05-09T22:14:55.788Z,14.33
2023-05-09T22:17:23.972Z,14.32
2023-05-09T22:19:50.496Z,14.34
2023-05-09T22:22:16.952Z,14.36
2023-05-09T22:24:43.656Z,14.37
2023-05-09T22:27:10.645Z,14.39
2023-05-09T22:29:37.140Z,14.42
2023-05-09T22:32:03.916Z,14.44
2023-05-09T22:34:31.031Z,14.48
2023-05-09T22:36:57.516Z,14.53
2023-05-09T22:39:24.108Z,14.53
2023-05-09T22:41:50.652Z,14.52
2023-05-09T22:44:17.187Z,14.53
2023-05-09T22:46:43.728Z,14.53
2023-05-09T22:52:57.533Z,14.49
2023-05-09T22:55:24.087Z,14.50
2023-05-09T22:57:50.614Z,14.49
2023-05-09T23:00:18.329Z,14.51
2023-05-09T23:02:45.488Z,14.54
2023-05-09T23:05:12.177Z,14.52
2023-05-09T23:07:38.707Z,14.54
2023-05-09T23:10:05.895Z,14.53
2023-05-09T23:12:32.412Z,14.51
2023-05-09T23:14:58.913Z,14.48
2023-05-09T23:17:25.554Z,14.46
2023-05-09T23:19:52.154Z,14.48
2023-05-09T23:22:18.752Z,14.46
2023-05-09T23:24:45.308Z,14.46
2023-05-09T23:27:11.849Z,14.45
2023-05-09T23:29:38.362Z,14.46
2023-05-09T23:32:05.154Z,14.46
2023-05-09T23:34:31.766Z,14.46
2023-05-09T23:36:58.323Z,14.43
2023-05-09T23:39:24.854Z,14.42
2023-05-09T23:41:51.387Z,14.42
2023-05-09T23:44:17.918Z,14.38
2023-05-09T23:46:44.479Z,14.39
2023-05-09T23:49:13.235Z,14.36
2023-05-09T23:51:39.926Z,14.33
2023-05-09T23:54:07.420Z,14.31
2023-05-09T23:56:33.955Z,14.29
2023-05-09T23:59:00.447Z,14.28
